sensor_id;sensor_type;location;lat;lon;timestamp;pressure;altitude;pressure_sealevel;temperature;humidity
62057;BME280;48016;50.284;18.860;2023-04-19T00:01:10;98389.55;;;10.02;79.70
62057;BME280;48016;50.284;18.860;2023-04-19T00:03:37;98390.65;;;10.01;79.65
62057;BME280;48016;50.284;18.860;2023-04-19T00:06:04;98389.55;;;9.99;79.63
62057;BME280;48016;50.284;18.860;2023-04-19T00:08:33;98391.14;;;9.97;79.83
62057;BME280;48016;50.284;18.860;2023-04-19T00:11:00;98386.63;;;9.94;79.66
62057;BME280;48016;50.284;18.860;2023-04-19T00:13:26;98386.17;;;9.92;79.84
62057;BME280;48016;50.284;18.860;2023-04-19T00:15:53;98383.66;;;9.90;79.89
62057;BME280;48016;50.284;18.860;2023-04-19T00:18:19;98380.25;;;9.89;79.91
62057;BME280;48016;50.284;18.860;2023-04-19T00:20:46;98377.69;;;9.88;79.88
62057;BME280;48016;50.284;18.860;2023-04-19T00:23:14;98373.86;;;9.85;80.10
62057;BME280;48016;50.284;18.860;2023-04-19T00:25:40;98369.26;;;9.81;80.10
62057;BME280;48016;50.284;18.860;2023-04-19T00:28:07;98364.48;;;9.76;80.30
62057;BME280;48016;50.284;18.860;2023-04-19T00:30:33;98361.96;;;9.73;80.25
62057;BME280;48016;50.284;18.860;2023-04-19T00:33:00;98356.86;;;9.70;80.30
62057;BME280;48016;50.284;18.860;2023-04-19T00:35:26;98360.80;;;9.67;80.46
62057;BME280;48016;50.284;18.860;2023-04-19T00:37:53;98357.26;;;9.66;80.41
62057;BME280;48016;50.284;18.860;2023-04-19T00:40:20;98354.29;;;9.65;80.45
62057;BME280;48016;50.284;18.860;2023-04-19T00:42:46;98354.02;;;9.66;80.39
62057;BME280;48016;50.284;18.860;2023-04-19T00:45:13;98350.64;;;9.62;80.53
62057;BME280;48016;50.284;18.860;2023-04-19T00:47:40;98346.98;;;9.61;80.39
62057;BME280;48016;50.284;18.860;2023-04-19T00:50:07;98348.89;;;9.58;80.46
62057;BME280;48016;50.284;18.860;2023-04-19T00:52:34;98342.36;;;9.55;80.56
62057;BME280;48016;50.284;18.860;2023-04-19T00:55:01;98339.96;;;9.53;80.61
62057;BME280;48016;50.284;18.860;2023-04-19T00:57:28;98335.29;;;9.51;80.49
62057;BME280;48016;50.284;18.860;2023-04-19T00:59:56;98331.89;;;9.51;80.34
62057;BME280;48016;50.284;18.860;2023-04-19T01:02:23;98329.25;;;9.51;80.27
62057;BME280;48016;50.284;18.860;2023-04-19T01:04:50;98323.81;;;9.49;80.36
62057;BME280;48016;50.284;18.860;2023-04-19T01:07:18;98321.31;;;9.47;80.40
62057;BME280;48016;50.284;18.860;2023-04-19T01:09:45;98321.23;;;9.48;80.19
62057;BME280;48016;50.284;18.860;2023-04-19T01:12:12;98317.16;;;9.47;80.26
62057;BME280;48016;50.284;18.860;2023-04-19T01:14:39;98316.06;;;9.45;80.09
62057;BME280;48016;50.284;18.860;2023-04-19T01:17:07;98310.07;;;9.43;80.14
62057;BME280;48016;50.284;18.860;2023-04-19T01:19:35;98304.77;;;9.39;80.32
62057;BME280;48016;50.284;18.860;2023-04-19T01:22:01;98306.27;;;9.37;80.17
62057;BME280;48016;50.284;18.860;2023-04-19T01:24:29;98301.74;;;9.34;80.15
62057;BME280;48016;50.284;18.860;2023-04-19T01:26:56;98299.65;;;9.32;80.17
62057;BME280;48016;50.284;18.860;2023-04-19T01:29:22;98297.46;;;9.29;80.12
62057;BME280;48016;50.284;18.860;2023-04-19T01:31:49;98299.88;;;9.29;80.25
62057;BME280;48016;50.284;18.860;2023-04-19T01:34:19;98292.69;;;9.24;80.40
62057;BME280;48016;50.284;18.860;2023-04-19T01:36:45;98294.52;;;9.23;80.53
62057;BME280;48016;50.284;18.860;2023-04-19T01:39:12;98292.12;;;9.22;80.27
62057;BME280;48016;50.284;18.860;2023-04-19T01:41:39;98289.65;;;9.21;80.08
62057;BME280;48016;50.284;18.860;2023-04-19T01:44:05;98292.48;;;9.18;80.20
62057;BME280;48016;50.284;18.860;2023-04-19T01:46:32;98291.92;;;9.17;80.11
62057;BME280;48016;50.284;18.860;2023-04-19T01:48:58;98285.89;;;9.18;80.06
62057;BME280;48016;50.284;18.860;2023-04-19T01:51:25;98280.09;;;9.16;80.00
62057;BME280;48016;50.284;18.860;2023-04-19T01:53:52;98275.48;;;9.14;79.98
62057;BME280;48016;50.284;18.860;2023-04-19T01:56:19;98273.80;;;9.13;79.99
62057;BME280;48016;50.284;18.860;2023-04-19T01:58:47;98269.95;;;9.14;79.95
62057;BME280;48016;50.284;18.860;2023-04-19T02:01:13;98269.48;;;9.13;79.98
62057;BME280;48016;50.284;18.860;2023-04-19T02:03:40;98270.80;;;9.12;79.94
62057;BME280;48016;50.284;18.860;2023-04-19T02:06:10;98271.60;;;9.11;80.06
62057;BME280;48016;50.284;18.860;2023-04-19T02:08:40;98269.38;;;9.10;80.01
62057;BME280;48016;50.284;18.860;2023-04-19T02:11:08;98270.08;;;9.10;79.84
62057;BME280;48016;50.284;18.860;2023-04-19T02:13:35;98265.10;;;9.09;79.95
62057;BME280;48016;50.284;18.860;2023-04-19T02:16:02;98269.42;;;9.09;79.96
62057;BME280;48016;50.284;18.860;2023-04-19T02:18:29;98265.56;;;9.11;79.79
62057;BME280;48016;50.284;18.860;2023-04-19T02:20:57;98264.27;;;9.11;79.83
62057;BME280;48016;50.284;18.860;2023-04-19T02:23:24;98263.92;;;9.10;79.81
62057;BME280;48016;50.284;18.860;2023-04-19T02:25:51;98260.73;;;9.09;79.73
62057;BME280;48016;50.284;18.860;2023-04-19T02:28:18;98263.27;;;9.06;79.82
62057;BME280;48016;50.284;18.860;2023-04-19T02:30:44;98262.40;;;9.04;79.86
62057;BME280;48016;50.284;18.860;2023-04-19T02:33:11;98259.98;;;9.03;79.95
62057;BME280;48016;50.284;18.860;2023-04-19T02:35:38;98256.16;;;9.03;79.86
62057;BME280;48016;50.284;18.860;2023-04-19T02:38:04;98256.64;;;9.02;79.98
62057;BME280;48016;50.284;18.860;2023-04-19T02:40:31;98251.61;;;9.01;79.97
62057;BME280;48016;50.284;18.860;2023-04-19T02:42:58;98252.00;;;8.99;79.95
62057;BME280;48016;50.284;18.860;2023-04-19T02:45:24;98249.95;;;8.99;80.06
62057;BME280;48016;50.284;18.860;2023-04-19T02:47:51;98246.44;;;8.99;79.99
62057;BME280;48016;50.284;18.860;2023-04-19T02:50:18;98234.02;;;8.93;80.36
62057;BME280;48016;50.284;18.860;2023-04-19T02:52:44;98230.84;;;8.91;80.47
62057;BME280;48016;50.284;18.860;2023-04-19T02:55:11;98229.77;;;8.84;80.74
62057;BME280;48016;50.284;18.860;2023-04-19T02:57:37;98229.53;;;8.76;81.37
62057;BME280;48016;50.284;18.860;2023-04-19T03:00:04;98222.05;;;8.70;81.84
62057;BME280;48016;50.284;18.860;2023-04-19T03:02:31;98220.23;;;8.65;81.90
62057;BME280;48016;50.284;18.860;2023-04-19T03:04:58;98220.23;;;8.61;81.85
62057;BME280;48016;50.284;18.860;2023-04-19T03:07:25;98215.58;;;8.60;81.85
62057;BME280;48016;50.284;18.860;2023-04-19T03:09:51;98213.80;;;8.60;82.37
62057;BME280;48016;50.284;18.860;2023-04-19T03:12:18;98209.05;;;8.59;82.54
62057;BME280;48016;50.284;18.860;2023-04-19T03:14:44;98203.23;;;8.56;82.28
62057;BME280;48016;50.284;18.860;2023-04-19T03:17:11;98196.23;;;8.53;82.80
62057;BME280;48016;50.284;18.860;2023-04-19T03:19:37;98186.85;;;8.50;82.81
62057;BME280;48016;50.284;18.860;2023-04-19T03:22:04;98187.27;;;8.47;82.97
62057;BME280;48016;50.284;18.860;2023-04-19T03:24:31;98183.95;;;8.42;82.96
62057;BME280;48016;50.284;18.860;2023-04-19T03:26:58;98181.65;;;8.36;83.84
62057;BME280;48016;50.284;18.860;2023-04-19T03:29:25;98181.05;;;8.28;83.87
62057;BME280;48016;50.284;18.860;2023-04-19T03:31:51;98182.14;;;8.22;84.11
62057;BME280;48016;50.284;18.860;2023-04-19T03:34:18;98176.98;;;8.17;84.29
62057;BME280;48016;50.284;18.860;2023-04-19T03:36:45;98177.23;;;8.13;84.45
62057;BME280;48016;50.284;18.860;2023-04-19T03:39:11;98174.65;;;8.07;84.82
62057;BME280;48016;50.284;18.860;2023-04-19T03:41:39;98170.58;;;8.05;85.27
62057;BME280;48016;50.284;18.860;2023-04-19T03:44:05;98168.45;;;8.01;85.19
62057;BME280;48016;50.284;18.860;2023-04-19T03:46:32;98166.74;;;7.99;85.24
62057;BME280;48016;50.284;18.860;2023-04-19T03:48:58;98165.02;;;7.98;85.52
62057;BME280;48016;50.284;18.860;2023-04-19T03:51:25;98160.16;;;7.95;85.69
62057;BME280;48016;50.284;18.860;2023-04-19T03:53:52;98155.55;;;7.93;85.75
62057;BME280;48016;50.284;18.860;2023-04-19T03:56:19;98153.95;;;7.93;85.60
62057;BME280;48016;50.284;18.860;2023-04-19T03:58:45;98149.96;;;7.93;85.91
62057;BME280;48016;50.284;18.860;2023-04-19T04:01:21;98145.67;;;7.95;85.67
62057;BME280;48016;50.284;18.860;2023-04-19T04:03:49;98137.95;;;7.93;85.90
62057;BME280;48016;50.284;18.860;2023-04-19T04:06:16;98141.81;;;7.93;85.89
62057;BME280;48016;50.284;18.860;2023-04-19T04:08:42;98140.58;;;7.90;86.18
62057;BME280;48016;50.284;18.860;2023-04-19T04:11:09;98136.86;;;7.89;86.10
62057;BME280;48016;50.284;18.860;2023-04-19T04:13:36;98137.01;;;7.89;86.07
62057;BME280;48016;50.284;18.860;2023-04-19T04:16:03;98144.61;;;7.90;85.83
62057;BME280;48016;50.284;18.860;2023-04-19T04:18:29;98137.52;;;7.87;86.09
62057;BME280;48016;50.284;18.860;2023-04-19T04:20:56;98141.96;;;7.86;86.24
62057;BME280;48016;50.284;18.860;2023-04-19T04:23:24;98147.11;;;7.88;86.07
62057;BME280;48016;50.284;18.860;2023-04-19T04:26:00;98150.80;;;7.89;86.10
62057;BME280;48016;50.284;18.860;2023-04-19T04:28:28;98152.61;;;7.94;86.15
62057;BME280;48016;50.284;18.860;2023-04-19T04:30:55;98156.76;;;8.00;86.34
62057;BME280;48016;50.284;18.860;2023-04-19T04:33:26;98161.42;;;8.08;85.99
62057;BME280;48016;50.284;18.860;2023-04-19T04:35:54;98165.84;;;8.13;85.67
62057;BME280;48016;50.284;18.860;2023-04-19T04:38:21;98166.41;;;8.17;85.66
62057;BME280;48016;50.284;18.860;2023-04-19T04:40:49;98163.51;;;8.23;85.63
62057;BME280;48016;50.284;18.860;2023-04-19T04:43:19;98165.46;;;8.26;85.46
62057;BME280;48016;50.284;18.860;2023-04-19T04:45:47;98166.39;;;8.27;85.29
62057;BME280;48016;50.284;18.860;2023-04-19T04:48:13;98164.98;;;8.27;85.20
62057;BME280;48016;50.284;18.860;2023-04-19T04:50:40;98161.91;;;8.25;85.22
62057;BME280;48016;50.284;18.860;2023-04-19T04:53:07;98158.64;;;8.31;85.30
62057;BME280;48016;50.284;18.860;2023-04-19T04:55:34;98164.77;;;8.34;85.05
62057;BME280;48016;50.284;18.860;2023-04-19T04:58:01;98161.21;;;8.30;84.91
62057;BME280;48016;50.284;18.860;2023-04-19T05:00:30;98162.91;;;8.30;85.07
62057;BME280;48016;50.284;18.860;2023-04-19T05:02:58;98165.42;;;8.34;84.94
62057;BME280;48016;50.284;18.860;2023-04-19T05:05:24;98162.69;;;8.35;84.88
62057;BME280;48016;50.284;18.860;2023-04-19T05:07:51;98159.31;;;8.36;84.85
62057;BME280;48016;50.284;18.860;2023-04-19T05:10:18;98159.27;;;8.37;84.64
62057;BME280;48016;50.284;18.860;2023-04-19T05:12:44;98156.84;;;8.36;84.60
62057;BME280;48016;50.284;18.860;2023-04-19T05:15:11;98157.19;;;8.37;84.55
62057;BME280;48016;50.284;18.860;2023-04-19T05:17:37;98155.73;;;8.37;84.54
62057;BME280;48016;50.284;18.860;2023-04-19T05:20:04;98152.91;;;8.41;84.39
62057;BME280;48016;50.284;18.860;2023-04-19T05:22:31;98156.77;;;8.40;84.34
62057;BME280;48016;50.284;18.860;2023-04-19T05:24:58;98157.52;;;8.38;84.35
62057;BME280;48016;50.284;18.860;2023-04-19T05:27:24;98156.41;;;8.37;84.43
62057;BME280;48016;50.284;18.860;2023-04-19T05:29:51;98156.70;;;8.37;84.28
62057;BME280;48016;50.284;18.860;2023-04-19T05:32:18;98156.76;;;8.38;84.43
62057;BME280;48016;50.284;18.860;2023-04-19T05:34:46;98156.14;;;8.38;84.22
62057;BME280;48016;50.284;18.860;2023-04-19T05:37:12;98150.76;;;8.39;84.49
62057;BME280;48016;50.284;18.860;2023-04-19T05:39:39;98147.10;;;8.39;84.22
62057;BME280;48016;50.284;18.860;2023-04-19T05:42:05;98150.45;;;8.39;84.11
62057;BME280;48016;50.284;18.860;2023-04-19T05:44:32;98149.59;;;8.31;83.82
62057;BME280;48016;50.284;18.860;2023-04-19T05:46:59;98151.61;;;8.24;83.75
62057;BME280;48016;50.284;18.860;2023-04-19T05:49:26;98151.54;;;8.13;83.32
62057;BME280;48016;50.284;18.860;2023-04-19T05:51:52;98152.57;;;8.04;83.07
62057;BME280;48016;50.284;18.860;2023-04-19T05:54:20;98156.84;;;7.96;82.64
62057;BME280;48016;50.284;18.860;2023-04-19T05:56:47;98152.20;;;7.86;82.80
62057;BME280;48016;50.284;18.860;2023-04-19T05:59:13;98149.98;;;7.80;82.97
62057;BME280;48016;50.284;18.860;2023-04-19T06:01:40;98157.25;;;7.75;82.97
62057;BME280;48016;50.284;18.860;2023-04-19T06:04:07;98155.72;;;7.70;82.90
62057;BME280;48016;50.284;18.860;2023-04-19T06:06:33;98160.74;;;7.66;82.80
62057;BME280;48016;50.284;18.860;2023-04-19T06:09:00;98159.56;;;7.60;82.75
62057;BME280;48016;50.284;18.860;2023-04-19T06:11:26;98153.23;;;7.55;82.08
62057;BME280;48016;50.284;18.860;2023-04-19T06:13:53;98152.86;;;7.51;81.70
62057;BME280;48016;50.284;18.860;2023-04-19T06:16:20;98155.37;;;7.53;81.66
62057;BME280;48016;50.284;18.860;2023-04-19T06:18:46;98155.77;;;7.54;81.61
62057;BME280;48016;50.284;18.860;2023-04-19T06:21:13;98155.04;;;7.58;81.70
62057;BME280;48016;50.284;18.860;2023-04-19T06:23:40;98159.48;;;7.65;81.10
62057;BME280;48016;50.284;18.860;2023-04-19T06:26:06;98158.70;;;7.66;80.50
62057;BME280;48016;50.284;18.860;2023-04-19T06:28:33;98160.31;;;7.66;79.95
62057;BME280;48016;50.284;18.860;2023-04-19T06:31:01;98158.19;;;7.65;78.69
62057;BME280;48016;50.284;18.860;2023-04-19T06:33:27;98161.52;;;7.67;79.07
62057;BME280;48016;50.284;18.860;2023-04-19T06:35:54;98161.52;;;7.70;78.84
62057;BME280;48016;50.284;18.860;2023-04-19T06:38:21;98162.04;;;7.69;78.58
62057;BME280;48016;50.284;18.860;2023-04-19T06:40:47;98159.46;;;7.63;78.40
62057;BME280;48016;50.284;18.860;2023-04-19T06:43:14;98161.05;;;7.55;78.05
62057;BME280;48016;50.284;18.860;2023-04-19T06:45:40;98162.02;;;7.46;78.25
62057;BME280;48016;50.284;18.860;2023-04-19T06:48:07;98162.64;;;7.40;78.77
62057;BME280;48016;50.284;18.860;2023-04-19T06:50:33;98164.36;;;7.37;79.12
62057;BME280;48016;50.284;18.860;2023-04-19T06:53:00;98163.98;;;7.37;79.50
62057;BME280;48016;50.284;18.860;2023-04-19T06:55:26;98161.58;;;7.35;79.99
62057;BME280;48016;50.284;18.860;2023-04-19T06:57:53;98165.95;;;7.36;80.17
62057;BME280;48016;50.284;18.860;2023-04-19T07:00:21;98166.63;;;7.37;80.24
62057;BME280;48016;50.284;18.860;2023-04-19T07:02:51;98168.48;;;7.39;80.10
62057;BME280;48016;50.284;18.860;2023-04-19T07:05:17;98166.41;;;7.42;80.13
62057;BME280;48016;50.284;18.860;2023-04-19T07:07:44;98167.86;;;7.42;80.04
62057;BME280;48016;50.284;18.860;2023-04-19T07:10:10;98169.77;;;7.41;79.94
62057;BME280;48016;50.284;18.860;2023-04-19T07:12:38;98169.79;;;7.42;80.06
62057;BME280;48016;50.284;18.860;2023-04-19T07:15:04;98173.90;;;7.46;80.11
62057;BME280;48016;50.284;18.860;2023-04-19T07:17:33;98174.95;;;7.55;80.51
62057;BME280;48016;50.284;18.860;2023-04-19T07:20:00;98175.60;;;7.64;80.40
62057;BME280;48016;50.284;18.860;2023-04-19T07:22:27;98180.36;;;7.70;80.49
62057;BME280;48016;50.284;18.860;2023-04-19T07:24:54;98182.80;;;7.74;80.11
62057;BME280;48016;50.284;18.860;2023-04-19T07:27:20;98184.98;;;7.73;79.79
62057;BME280;48016;50.284;18.860;2023-04-19T07:29:47;98187.62;;;7.69;79.76
62057;BME280;48016;50.284;18.860;2023-04-19T07:32:14;98190.33;;;7.76;79.91
62057;BME280;48016;50.284;18.860;2023-04-19T07:34:41;98195.05;;;7.78;79.81
62057;BME280;48016;50.284;18.860;2023-04-19T07:37:08;98190.45;;;7.80;79.94
62057;BME280;48016;50.284;18.860;2023-04-19T07:39:35;98192.63;;;7.81;79.52
62057;BME280;48016;50.284;18.860;2023-04-19T07:42:02;98193.64;;;7.81;79.35
62057;BME280;48016;50.284;18.860;2023-04-19T07:44:29;98191.45;;;7.79;78.71
62057;BME280;48016;50.284;18.860;2023-04-19T07:46:55;98193.50;;;7.79;78.49
62057;BME280;48016;50.284;18.860;2023-04-19T07:49:22;98191.47;;;7.83;78.08
62057;BME280;48016;50.284;18.860;2023-04-19T07:51:48;98189.25;;;7.82;78.07
62057;BME280;48016;50.284;18.860;2023-04-19T07:54:15;98188.54;;;7.81;77.83
62057;BME280;48016;50.284;18.860;2023-04-19T07:56:43;98183.23;;;7.77;77.25
62057;BME280;48016;50.284;18.860;2023-04-19T07:59:09;98188.05;;;7.70;76.71
62057;BME280;48016;50.284;18.860;2023-04-19T08:01:36;98188.52;;;7.68;76.85
62057;BME280;48016;50.284;18.860;2023-04-19T08:04:02;98193.77;;;7.70;77.05
62057;BME280;48016;50.284;18.860;2023-04-19T08:06:29;98194.40;;;7.70;76.22
62057;BME280;48016;50.284;18.860;2023-04-19T08:08:56;98193.98;;;7.68;76.31
62057;BME280;48016;50.284;18.860;2023-04-19T08:11:23;98187.58;;;7.81;76.75
62057;BME280;48016;50.284;18.860;2023-04-19T08:13:50;98190.66;;;7.99;76.29
62057;BME280;48016;50.284;18.860;2023-04-19T08:16:17;98187.99;;;8.01;75.69
62057;BME280;48016;50.284;18.860;2023-04-19T08:18:43;98182.82;;;7.98;75.55
62057;BME280;48016;50.284;18.860;2023-04-19T08:21:11;98184.83;;;8.04;75.55
62057;BME280;48016;50.284;18.860;2023-04-19T08:23:38;98181.81;;;8.16;75.83
62057;BME280;48016;50.284;18.860;2023-04-19T08:26:04;98181.08;;;8.37;75.65
62057;BME280;48016;50.284;18.860;2023-04-19T08:28:31;98181.08;;;8.60;74.69
62057;BME280;48016;50.284;18.860;2023-04-19T08:30:58;98176.01;;;8.73;74.03
62057;BME280;48016;50.284;18.860;2023-04-19T08:33:24;98175.58;;;8.80;73.18
62057;BME280;48016;50.284;18.860;2023-04-19T08:35:51;98172.95;;;8.85;73.59
62057;BME280;48016;50.284;18.860;2023-04-19T08:38:17;98178.34;;;8.95;73.73
62057;BME280;48016;50.284;18.860;2023-04-19T08:40:50;98174.82;;;8.95;72.46
62057;BME280;48016;50.284;18.860;2023-04-19T08:43:18;98171.61;;;8.81;72.18
62057;BME280;48016;50.284;18.860;2023-04-19T08:45:47;98178.52;;;8.68;72.08
62057;BME280;48016;50.284;18.860;2023-04-19T08:48:15;98175.59;;;8.60;73.07
62057;BME280;48016;50.284;18.860;2023-04-19T08:50:42;98176.76;;;8.63;73.60
62057;BME280;48016;50.284;18.860;2023-04-19T08:53:09;98175.52;;;8.64;74.58
62057;BME280;48016;50.284;18.860;2023-04-19T08:55:37;98177.23;;;8.55;74.98
62057;BME280;48016;50.284;18.860;2023-04-19T08:58:05;98176.38;;;8.46;75.50
62057;BME280;48016;50.284;18.860;2023-04-19T09:00:33;98179.39;;;8.37;75.98
62057;BME280;48016;50.284;18.860;2023-04-19T09:02:59;98174.98;;;8.35;76.20
62057;BME280;48016;50.284;18.860;2023-04-19T09:05:26;98175.54;;;8.24;76.40
62057;BME280;48016;50.284;18.860;2023-04-19T09:07:53;98176.04;;;8.07;77.01
62057;BME280;48016;50.284;18.860;2023-04-19T09:10:20;98174.73;;;8.00;77.17
62057;BME280;48016;50.284;18.860;2023-04-19T09:13:03;98174.55;;;7.92;77.12
62057;BME280;48016;50.284;18.860;2023-04-19T09:15:38;98173.56;;;7.78;77.43
62057;BME280;48016;50.284;18.860;2023-04-19T09:18:07;98172.95;;;7.76;77.78
62057;BME280;48016;50.284;18.860;2023-04-19T09:20:42;98174.79;;;7.69;77.68
62057;BME280;48016;50.284;18.860;2023-04-19T09:23:18;98176.02;;;7.66;78.12
62057;BME280;48016;50.284;18.860;2023-04-19T09:28:30;98174.26;;;7.50;78.22
62057;BME280;48016;50.284;18.860;2023-04-19T09:30:57;98169.63;;;7.44;78.13
62057;BME280;48016;50.284;18.860;2023-04-19T09:33:35;98170.98;;;7.39;78.21
62057;BME280;48016;50.284;18.860;2023-04-19T09:36:05;98175.48;;;7.31;78.41
62057;BME280;48016;50.284;18.860;2023-04-19T09:38:46;98172.52;;;7.26;78.43
62057;BME280;48016;50.284;18.860;2023-04-19T09:41:13;98174.52;;;7.21;78.55
62057;BME280;48016;50.284;18.860;2023-04-19T09:43:40;98174.80;;;7.23;78.85
62057;BME280;48016;50.284;18.860;2023-04-19T09:46:07;98177.46;;;7.24;78.85
62057;BME280;48016;50.284;18.860;2023-04-19T09:48:34;98176.09;;;7.24;78.94
62057;BME280;48016;50.284;18.860;2023-04-19T09:51:02;98178.27;;;7.26;78.75
62057;BME280;48016;50.284;18.860;2023-04-19T09:53:30;98179.48;;;7.24;78.86
62057;BME280;48016;50.284;18.860;2023-04-19T09:56:00;98184.91;;;7.24;78.88
62057;BME280;48016;50.284;18.860;2023-04-19T09:58:26;98183.79;;;7.24;78.71
62057;BME280;48016;50.284;18.860;2023-04-19T10:00:54;98189.73;;;7.21;78.77
62057;BME280;48016;50.284;18.860;2023-04-19T10:03:23;98189.08;;;7.18;78.65
62057;BME280;48016;50.284;18.860;2023-04-19T10:05:53;98184.38;;;7.15;78.59
62057;BME280;48016;50.284;18.860;2023-04-19T10:08:20;98184.92;;;7.10;78.87
62057;BME280;48016;50.284;18.860;2023-04-19T10:10:46;98183.82;;;7.09;78.87
62057;BME280;48016;50.284;18.860;2023-04-19T10:13:17;98178.99;;;7.12;78.99
62057;BME280;48016;50.284;18.860;2023-04-19T10:15:46;98178.89;;;7.14;79.09
62057;BME280;48016;50.284;18.860;2023-04-19T10:18:13;98175.31;;;7.18;79.12
62057;BME280;48016;50.284;18.860;2023-04-19T10:20:52;98171.62;;;7.24;79.15
62057;BME280;48016;50.284;18.860;2023-04-19T10:23:20;98172.04;;;7.29;79.08
62057;BME280;48016;50.284;18.860;2023-04-19T10:25:55;98175.36;;;7.28;79.15
62057;BME280;48016;50.284;18.860;2023-04-19T10:28:22;98171.52;;;7.28;79.00
62057;BME280;48016;50.284;18.860;2023-04-19T10:31:16;98171.89;;;7.28;79.05
62057;BME280;48016;50.284;18.860;2023-04-19T10:33:46;98172.27;;;7.27;79.17
62057;BME280;48016;50.284;18.860;2023-04-19T10:36:14;98169.86;;;7.28;79.31
62057;BME280;48016;50.284;18.860;2023-04-19T10:38:50;98169.12;;;7.31;79.20
62057;BME280;48016;50.284;18.860;2023-04-19T10:41:21;98169.23;;;7.26;79.31
62057;BME280;48016;50.284;18.860;2023-04-19T10:48:52;98181.31;;;7.28;79.35
62057;BME280;48016;50.284;18.860;2023-04-19T10:51:22;98187.02;;;7.25;79.44
62057;BME280;48016;50.284;18.860;2023-04-19T10:53:51;98192.33;;;7.21;79.42
62057;BME280;48016;50.284;18.860;2023-04-19T10:56:20;98193.22;;;7.20;79.40
62057;BME280;48016;50.284;18.860;2023-04-19T10:59:11;98195.52;;;7.20;79.47
62057;BME280;48016;50.284;18.860;2023-04-19T11:01:42;98198.30;;;7.17;79.46
62057;BME280;48016;50.284;18.860;2023-04-19T11:04:14;98204.90;;;7.12;79.56
62057;BME280;48016;50.284;18.860;2023-04-19T11:09:36;98207.46;;;7.08;79.70
62057;BME280;48016;50.284;18.860;2023-04-19T11:12:10;98206.20;;;7.07;80.04
62057;BME280;48016;50.284;18.860;2023-04-19T11:14:43;98204.61;;;7.08;79.98
62057;BME280;48016;50.284;18.860;2023-04-19T11:17:20;98206.69;;;7.03;79.92
62057;BME280;48016;50.284;18.860;2023-04-19T11:22:34;98202.94;;;6.89;80.28
62057;BME280;48016;50.284;18.860;2023-04-19T11:25:11;98200.81;;;6.86;80.26
62057;BME280;48016;50.284;18.860;2023-04-19T11:27:39;98198.90;;;6.80;80.44
62057;BME280;48016;50.284;18.860;2023-04-19T11:30:11;98197.64;;;6.79;80.59
62057;BME280;48016;50.284;18.860;2023-04-19T11:32:54;98198.07;;;6.76;80.84
62057;BME280;48016;50.284;18.860;2023-04-19T11:35:25;98197.10;;;6.76;81.03
62057;BME280;48016;50.284;18.860;2023-04-19T11:37:53;98202.85;;;6.84;81.12
62057;BME280;48016;50.284;18.860;2023-04-19T11:40:22;98201.61;;;6.90;81.01
62057;BME280;48016;50.284;18.860;2023-04-19T11:42:54;98203.73;;;6.93;81.05
62057;BME280;48016;50.284;18.860;2023-04-19T11:45:26;98207.06;;;6.96;81.24
62057;BME280;48016;50.284;18.860;2023-04-19T11:47:55;98203.41;;;7.01;81.05
62057;BME280;48016;50.284;18.860;2023-04-19T11:50:39;98200.77;;;7.05;81.04
62057;BME280;48016;50.284;18.860;2023-04-19T11:53:16;98201.11;;;7.13;80.98
62057;BME280;48016;50.284;18.860;2023-04-19T11:55:47;98202.49;;;7.22;80.85
62057;BME280;48016;50.284;18.860;2023-04-19T12:01:06;98200.48;;;7.34;81.05
62057;BME280;48016;50.284;18.860;2023-04-19T12:03:36;98198.09;;;7.42;80.90
62057;BME280;48016;50.284;18.860;2023-04-19T12:06:05;98200.69;;;7.49;80.78
62057;BME280;48016;50.284;18.860;2023-04-19T12:08:37;98194.73;;;7.52;80.65
62057;BME280;48016;50.284;18.860;2023-04-19T12:11:05;98201.90;;;7.52;80.61
62057;BME280;48016;50.284;18.860;2023-04-19T12:13:32;98200.48;;;7.52;80.73
62057;BME280;48016;50.284;18.860;2023-04-19T12:15:59;98202.84;;;7.53;80.67
62057;BME280;48016;50.284;18.860;2023-04-19T12:18:26;98204.98;;;7.53;80.60
62057;BME280;48016;50.284;18.860;2023-04-19T12:20:52;98205.35;;;7.52;80.53
62057;BME280;48016;50.284;18.860;2023-04-19T12:23:20;98206.69;;;7.52;80.57
62057;BME280;48016;50.284;18.860;2023-04-19T12:25:47;98209.50;;;7.52;80.48
62057;BME280;48016;50.284;18.860;2023-04-19T12:28:14;98210.84;;;7.51;80.51
62057;BME280;48016;50.284;18.860;2023-04-19T12:30:41;98209.05;;;7.49;80.48
62057;BME280;48016;50.284;18.860;2023-04-19T12:33:09;98210.89;;;7.44;80.70
62057;BME280;48016;50.284;18.860;2023-04-19T12:35:36;98210.33;;;7.46;80.65
62057;BME280;48016;50.284;18.860;2023-04-19T12:38:03;98210.84;;;7.49;80.66
62057;BME280;48016;50.284;18.860;2023-04-19T12:40:30;98208.00;;;7.49;80.54
62057;BME280;48016;50.284;18.860;2023-04-19T12:42:56;98209.55;;;7.47;80.42
62057;BME280;48016;50.284;18.860;2023-04-19T12:45:23;98208.77;;;7.44;80.52
62057;BME280;48016;50.284;18.860;2023-04-19T12:47:50;98212.08;;;7.42;80.59
62057;BME280;48016;50.284;18.860;2023-04-19T12:50:16;98208.77;;;7.41;80.52
62057;BME280;48016;50.284;18.860;2023-04-19T12:52:43;98212.86;;;7.41;80.60
62057;BME280;48016;50.284;18.860;2023-04-19T12:55:10;98207.91;;;7.46;80.53
62057;BME280;48016;50.284;18.860;2023-04-19T12:57:37;98213.81;;;7.51;80.36
62057;BME280;48016;50.284;18.860;2023-04-19T13:00:05;98207.41;;;7.53;80.23
62057;BME280;48016;50.284;18.860;2023-04-19T13:02:33;98208.45;;;7.54;80.18
62057;BME280;48016;50.284;18.860;2023-04-19T13:05:00;98207.94;;;7.55;80.03
62057;BME280;48016;50.284;18.860;2023-04-19T13:07:26;98210.04;;;7.52;80.16
62057;BME280;48016;50.284;18.860;2023-04-19T13:09:53;98207.54;;;7.51;80.40
62057;BME280;48016;50.284;18.860;2023-04-19T13:12:20;98212.84;;;7.50;80.37
62057;BME280;48016;50.284;18.860;2023-04-19T13:14:47;98215.30;;;7.43;80.25
62057;BME280;48016;50.284;18.860;2023-04-19T13:17:18;98214.02;;;7.35;80.32
62057;BME280;48016;50.284;18.860;2023-04-19T13:19:44;98213.59;;;7.31;80.42